Nearby METAR Reports

 

KIND - Indianapolis, Indiana, USA
Distance from station: SW 6mi, 9km
Updated: Sep 22 2021 12:33am
Overcast
Overcast
 Wind from N
Wind: N 14 mph , 22 km/h, Gust: 23 mph , 37 km/h
Temperature: 61°F , 16°C
Dew Point: 57°F , 14°C
Humidity: 88%
Barometer: 30.03 inHg , 1016.9 hPa
Clouds: Overcast
Visibility: 10 miles , 16 km
Cloud details: Mostly Cloudy 1300 ft
Mostly Cloudy 2000 ft
Overcast 4600 ft
2021/09/22 04:33 KIND 220433Z 36012G20KT 10SM BKN013 BKN020 OVC046 16/14 A3003 RMK AO2 RAE07 P0000 T01610144
KEYE - Indianapolis, Indiana, USA
Distance from station: NW 5mi, 8km
Updated: Sep 22 2021 12:53am
Overcast
Overcast
 Wind from NNE
Wind: NNE 12 mph , 19 km/h, Gust: 22 mph , 35 km/h
Temperature: 61°F , 16°C
Dew Point: 57°F , 14°C
Humidity: 88%
Barometer: 30.02 inHg , 1016.6 hPa
Clouds: Overcast
Visibility: 10 miles , 16 km
Cloud details: Few Clouds 1200 ft
Overcast 4900 ft
2021/09/22 04:53 KEYE 220453Z AUTO 02010G19KT 10SM FEW012 OVC049 16/14 A3002 RMK AO2 RAE06 SLP159 P0000 T01610144 402560161 $
 
KTYQ - Indianapolis Exc, Indiana, USA
Distance from station: N 17mi, 28km
Updated: Sep 22 2021 12:35am
Drizzle, Overcast
Drizzle, Overcast
 Wind from N
Wind: N 12 mph , 19 km/h, Gust: 18 mph , 30 km/h
Temperature: 59°F , 15°C
Dew Point: 57°F , 14°C
Humidity: 94%
Barometer: 30.06 inHg , 1017.9 hPa
Summary: Drizzle
Clouds: Overcast
Visibility: 7 miles , 11 km
Cloud details: Mostly Cloudy 800 ft
Overcast 2100 ft
2021/09/22 04:35 KTYQ 220435Z AUTO 36010G16KT 7SM DZ BKN008 OVC021 15/14 A3006 RMK AO2 LTG DSNT E P0002 T01470141
KGEZ - Shelbyville, Indiana, USA
Distance from station: ESE 27mi, 43km
Updated: Sep 22 2021 12:53am
Overcast
Overcast
 Wind from N
Wind: N 17 mph , 28 km/h, Gust: 28 mph , 44 km/h
Temperature: 63°F , 17°C
Dew Point: 57°F , 14°C
Humidity: 83%
Barometer: 30.00 inHg , 1015.9 hPa
Clouds: Overcast
Visibility: 10 miles , 16 km
Cloud details: Partly Cloudy 1300 ft
Partly Cloudy 2000 ft
Overcast 3500 ft
2021/09/22 04:53 KGEZ 220453Z AUTO 36015G24KT 10SM SCT013 SCT020 OVC035 17/14 A3000 RMK AO2 PK WND 34031/0412 RAE25 SLP153 P0000 T01670144 402610167
 
KAID - Anderson Municip, Indiana, USA
Distance from station: NE 40mi, 64km
Updated: Sep 22 2021 12:55am
Heavy rain, Overcast
Heavy rain, Overcast
 Wind from NNW
Wind: NNW 15 mph , 24 km/h, Gust: 22 mph , 35 km/h
Temperature: 57°F , 14°C
Dew Point: 54°F , 12°C
Humidity: 88%
Barometer: 30.05 inHg , 1017.6 hPa
Summary: Heavy Rain
Clouds: Overcast
Visibility: 5 miles , 8 km
Cloud details: Mostly Cloudy 1000 ft
Mostly Cloudy 2400 ft
Overcast 3300 ft
2021/09/22 04:55 KAID 220455Z AUTO 34013G19KT 5SM +RA BKN010 BKN024 OVC033 14/12 A3005 RMK AO2 P0009 T01430118
KBAK - Columbus/Balkala, Indiana, USA
Distance from station: SSE 40mi, 64km
Updated: Sep 21 2021 9:45pm
NOT Current
Rain
Rain
 Wind from NNW
Wind: NNW 8 mph , 13 km/h
Temperature: 68°F , 20°C
Dew Point: 66°F , 19°C
Humidity: 94%
Barometer: 30.02 inHg , 1016.6 hPa
Summary: Rain
Visibility: 3 miles , 5 km
2021/09/22 01:45 KBAK 220145Z 34007KT 3SM RA 20/19 A3002 RMK LAST
 
KBMG - Bloomington, Indiana, USA
Distance from station: SSW 48mi, 78km
Updated: Sep 22 2021 12:53am
Light rain, Overcast
Light rain, Overcast
 Wind from varies
Wind: varies 5 mph , 7 km/h, Gust: 17 mph , 28 km/h
Temperature: 63°F , 17°C
Dew Point: 57°F , 14°C
Humidity: 83%
Barometer: 30.02 inHg , 1016.6 hPa
Summary: Light Rain
Clouds: Overcast
Visibility: 8 miles , 13 km
Cloud details: Partly Cloudy 1200 ft
Overcast 3900 ft
2021/09/22 04:53 KBMG 220453Z AUTO VRB04G15KT 8SM -RA SCT012 OVC039 17/14 A3002 RMK AO2 RAB52 SLP159 P0001 T01670144 402610167
KOKK - Kokomo, Indiana, USA
Distance from station: N 53mi, 85km
Updated: Sep 22 2021 12:33am
Light rain, Overcast
Light rain, Overcast
 Wind from NNW
Wind: NNW 9 mph , 15 km/h
Temperature: 59°F , 15°C
Barometer: 30.08 inHg , 1018.6 hPa
Summary: Light Rain
Clouds: Overcast
Visibility: 8 miles , 13 km
Cloud details: Partly Cloudy 900 ft
Partly Cloudy 3400 ft
Overcast 4900 ft
2021/09/22 04:33 KOKK 220433Z AUTO 33008KT 8SM -RA SCT009 SCT034 OVC049 15/ A3008 RMK AO2 PNO $